Time;durP1;ratioP1;P1;durP2;ratioP2;P2;SDS_P1;SDS_P2;PMS_P1;PMS_P2;Temp;Humidity;BMP_temperature;BMP_pressure;BME280_temperature;BME280_humidity;BME280_pressure;Samples;Min_cycle;Max_cycle;Signal;HPM_P1;HPM_P2
2022/04/18 00:01:47;;;;;;;6.82;3.47;;;;;;;1.98;84.85;98712.19;4985508;28;20029;-86
2022/04/18 00:04:12;;;;;;;4.53;2.53;;;;;;;1.95;85.49;98706.94;4985815;28;20062;-86
2022/04/18 00:06:37;;;;;;;8.23;3.38;;;;;;;1.99;85.06;98704.44;4986155;28;20019;-86
2022/04/18 00:09:04;;;;;;;12.35;2.95;;;;;;;1.89;85.61;98697.34;4986817;28;20021;-86
2022/04/18 00:11:29;;;;;;;7.95;3.70;;;;;;;1.86;86.46;98697.31;4984621;28;20100;-86
2022/04/18 00:13:55;;;;;;;4.28;2.08;;;;;;;1.84;86.44;98693.81;4986139;28;20023;-86
2022/04/18 00:16:20;;;;;;;5.05;2.53;;;;;;;1.74;85.91;98681.53;4984409;28;20022;-86
2022/04/18 00:18:46;;;;;;;8.68;2.38;;;;;;;1.82;86.02;98681.66;4977947;28;20078;-86
2022/04/18 00:21:11;;;;;;;7.53;3.35;;;;;;;1.74;86.07;98683.28;4985359;28;20038;-86
2022/04/18 00:23:36;;;;;;;8.65;3.22;;;;;;;1.69;86.75;98682.31;4983660;28;20365;-86
2022/04/18 00:26:02;;;;;;;9.88;4.60;;;;;;;1.57;86.32;98671.75;4983723;28;20058;-86
2022/04/18 00:28:28;;;;;;;11.68;5.32;;;;;;;1.61;86.92;98673.53;4985155;28;20026;-86
2022/04/18 00:30:53;;;;;;;11.02;3.95;;;;;;;1.57;86.90;98671.75;4986201;28;20026;-86
2022/04/18 00:33:19;;;;;;;10.75;4.22;;;;;;;1.65;87.23;98670.16;4984786;28;20334;-86
2022/04/18 00:35:44;;;;;;;11.10;5.60;;;;;;;1.75;87.26;98677.22;5001653;28;20038;-86
2022/04/18 00:38:10;;;;;;;12.77;4.30;;;;;;;1.76;86.79;98660.81;4984823;28;20027;-86
2022/04/18 00:40:35;;;;;;;10.88;4.90;;;;;;;1.63;86.97;98657.16;4984794;28;20026;-86
2022/04/18 00:43:05;;;;;;;7.20;3.33;;;;;;;1.52;86.85;98656.09;4985195;28;20151;-86
2022/04/18 00:45:30;;;;;;;6.72;3.65;;;;;;;1.35;86.76;98644.59;4984733;28;20030;-86
2022/04/18 00:47:56;;;;;;;9.20;4.00;;;;;;;1.29;87.56;98648.78;4984257;28;20025;-86
2022/04/18 00:50:22;;;;;;;8.43;4.00;;;;;;;1.34;87.66;98647.16;4984811;28;20023;-86
2022/04/18 00:52:51;;;;;;;9.98;3.67;;;;;;;1.37;87.66;98644.63;4985219;28;20022;-86
2022/04/18 00:55:18;;;;;;;7.22;4.35;;;;;;;1.35;87.60;98644.59;4985479;28;20098;-86
2022/04/18 00:57:44;;;;;;;5.70;3.33;;;;;;;1.43;87.97;98647.31;4984251;28;20027;-86
2022/04/18 01:00:15;;;;;;;9.02;3.20;;;;;;;1.51;87.25;98648.28;4985180;28;20078;-86
2022/04/18 01:02:40;;;;;;;14.45;3.10;;;;;;;1.45;86.92;98640.41;4980647;28;20022;-86
2022/04/18 01:05:07;;;;;;;7.20;3.72;;;;;;;1.46;87.16;98637.84;4983061;28;20070;-86
2022/04/18 01:07:34;;;;;;;8.65;3.45;;;;;;;1.34;87.00;98636.78;4984229;28;20027;-86
2022/04/18 01:10:01;;;;;;;10.55;3.20;;;;;;;1.18;87.57;98634.78;4983931;28;20307;-86
2022/04/18 01:12:26;;;;;;;7.90;3.38;;;;;;;1.15;87.88;98634.72;4984297;28;20046;-86
2022/04/18 01:14:52;;;;;;;6.10;3.25;;;;;;;1.12;87.68;98634.66;4985532;28;20023;-86
2022/04/18 01:17:17;;;;;;;4.70;1.92;;;;;;;0.96;87.98;98622.28;4983605;28;20027;-86
2022/04/18 01:19:43;;;;;;;9.77;2.97;;;;;;;1.10;88.28;98625.97;4985196;28;20084;-86
2022/04/18 01:22:09;;;;;;;6.07;3.00;;;;;;;1.06;88.02;98629.38;4983026;28;20034;-86
2022/04/18 01:30:07;;;;;;;8.35;3.22;;;;;;;1.11;88.72;98635.53;4984384;28;20021;-86
2022/04/18 01:32:33;;;;;;;10.02;3.60;;;;;;;1.09;88.48;98629.44;4983139;28;20022;-86
2022/04/18 01:34:58;;;;;;;7.60;3.25;;;;;;;1.07;88.74;98628.53;4998738;28;20038;-87
2022/04/18 01:37:24;;;;;;;6.10;3.22;;;;;;;0.93;88.15;98627.41;4983488;28;20023;-86
2022/04/18 01:39:50;;;;;;;7.03;3.95;;;;;;;0.92;88.58;98625.69;4982826;28;20042;-86
2022/04/18 01:42:15;;;;;;;8.43;3.38;;;;;;;0.83;89.26;98621.22;4983548;28;20030;-86
2022/04/18 01:44:41;;;;;;;9.98;3.80;;;;;;;0.81;89.30;98619.41;4983649;28;20074;-86
2022/04/18 01:47:06;;;;;;;14.00;3.42;;;;;;;0.74;89.65;98617.56;4984908;28;20094;-86
2022/04/18 01:49:32;;;;;;;14.05;5.30;;;;;;;0.67;90.60;98618.28;4983907;28;20029;-86
2022/04/18 01:51:57;;;;;;;9.25;3.30;;;;;;;0.81;91.14;98612.53;4983727;28;20019;-86
2022/04/18 01:54:23;;;;;;;8.68;4.72;;;;;;;0.77;90.91;98609.84;4984198;28;20042;-86
2022/04/18 01:56:49;;;;;;;5.57;4.25;;;;;;;0.86;90.78;98599.66;4984750;28;20022;-86
2022/04/18 01:59:14;;;;;;;8.95;4.53;;;;;;;0.80;90.55;98594.38;4983647;28;20046;-86
2022/04/18 02:01:40;;;;;;;11.52;4.47;;;;;;;0.80;90.44;98599.53;4983731;28;20031;-86
2022/04/18 02:04:05;;;;;;;13.73;5.07;;;;;;;0.85;90.82;98603.09;4982697;28;20309;-86
2022/04/18 02:06:30;;;;;;;16.08;5.63;;;;;;;0.88;89.91;98608.34;4982999;28;20023;-86
2022/04/18 02:08:56;;;;;;;11.10;4.45;;;;;;;0.86;89.60;98599.66;4980254;28;20041;-86
2022/04/18 02:11:21;;;;;;;11.70;3.88;;;;;;;0.73;89.27;98597.69;4980596;28;20027;-85
2022/04/18 02:13:47;;;;;;;9.32;3.80;;;;;;;0.73;89.65;98595.09;4983005;28;20022;-85
2022/04/18 02:16:12;;;;;;;8.88;3.95;;;;;;;0.74;89.53;98595.13;4983162;28;20038;-85
2022/04/18 02:18:38;;;;;;;7.20;3.30;;;;;;;0.66;89.40;98596.69;4982763;28;20027;-85
2022/04/18 02:21:03;;;;;;;6.47;3.50;;;;;;;0.54;89.41;98587.84;4982711;28;20049;-85
2022/04/18 02:23:29;;;;;;;7.22;3.75;;;;;;;0.47;90.52;98586.84;4984149;28;20034;-85
2022/04/18 02:25:54;;;;;;;9.82;3.65;;;;;;;0.66;90.32;98590.66;4982186;28;20042;-85
2022/04/18 02:28:20;;;;;;;4.65;2.75;;;;;;;0.64;90.36;98588.03;4983099;28;20109;-85
2022/04/18 02:30:45;;;;;;;7.18;3.33;;;;;;;0.70;90.37;98589.88;4982853;28;20344;-85
2022/04/18 02:33:11;;;;;;;6.10;3.03;;;;;;;0.69;90.00;98590.72;4982660;28;20074;-85
2022/04/18 02:35:37;;;;;;;5.85;2.78;;;;;;;0.72;89.45;98590.75;4982803;28;20025;-85
2022/04/18 02:38:03;;;;;;;6.03;2.20;;;;;;;0.61;89.65;98587.09;4982476;28;20071;-85
2022/04/18 02:40:28;;;;;;;17.73;2.92;;;;;;;0.66;89.57;98585.47;4982967;28;20018;-85
2022/04/18 02:42:54;;;;;;;5.53;2.95;;;;;;;0.59;90.10;98588.78;4982258;28;20022;-85
2022/04/18 02:45:19;;;;;;;5.47;3.03;;;;;;;0.40;90.68;98578.91;4982808;28;20188;-85
2022/04/18 02:47:46;;;;;;;4.35;2.70;;;;;;;0.54;91.61;98582.66;4983733;28;20026;-85
2022/04/18 02:50:11;;;;;;;4.13;1.95;;;;;;;0.69;91.40;98585.53;4983549;28;20038;-85
2022/04/18 02:52:37;;;;;;;6.47;3.17;;;;;;;0.68;91.67;98581.19;4982380;28;20033;-85
2022/04/18 02:55:04;;;;;;;6.80;2.50;;;;;;;0.71;91.26;98573.47;4982756;28;20023;-85
2022/04/18 02:57:29;;;;;;;6.68;3.17;;;;;;;0.61;90.51;98566.38;4983381;28;20281;-85
2022/04/18 02:59:55;;;;;;;16.33;3.38;;;;;;;0.74;89.97;98563.16;4999851;28;20038;-85
2022/04/18 03:02:20;;;;;;;6.72;2.72;;;;;;;0.64;89.62;98564.75;4982590;28;20023;-85
2022/04/18 03:04:46;;;;;;;3.85;2.15;;;;;;;0.64;89.37;98561.25;4982790;28;20316;-85
2022/04/18 03:07:11;;;;;;;5.40;2.60;;;;;;;0.54;89.63;98549.00;4981852;28;20318;-85
2022/04/18 03:09:36;;;;;;;8.93;2.58;;;;;;;0.48;89.72;98554.06;4983770;28;20019;-85
2022/04/18 03:12:02;;;;;;;6.43;2.63;;;;;;;0.56;89.99;98543.00;4981905;28;20026;-85
2022/04/18 03:14:29;;;;;;;6.03;2.22;;;;;;;0.50;89.54;98547.22;4983899;28;20046;-85
2022/04/18 03:16:55;;;;;;;3.33;2.08;;;;;;;0.38;89.86;98536.63;4982707;28;20314;-85
2022/04/18 03:19:21;;;;;;;4.68;2.67;;;;;;;0.46;89.82;98546.25;4983294;28;20933;-85
2022/04/18 03:21:47;;;;;;;4.72;2.47;;;;;;;0.52;89.15;98545.50;4980021;28;20030;-85
2022/04/18 03:24:13;;;;;;;4.57;2.60;;;;;;;0.31;89.05;98539.94;4981618;28;20160;-85
2022/04/18 03:26:38;;;;;;;3.35;1.88;;;;;;;0.32;90.01;98542.56;4983730;28;20022;-85
2022/04/18 03:29:04;;;;;;;5.45;2.72;;;;;;;0.43;90.30;98545.31;4981941;28;20097;-85
2022/04/18 03:31:29;;;;;;;5.30;1.85;;;;;;;0.50;89.59;98542.03;4981602;28;20018;-85
2022/04/18 03:33:55;;;;;;;7.55;2.50;;;;;;;0.50;88.93;98542.03;4982768;28;20121;-85
2022/04/18 03:41:48;;;;;;;11.75;2.05;;;;;;;0.34;90.08;98545.19;4982530;28;21019;-85
2022/04/18 03:44:13;;;;;;;4.05;2.05;;;;;;;0.12;90.06;98535.25;4982800;28;20022;-85
2022/04/18 03:46:39;;;;;;;4.80;2.75;;;;;;;0.12;91.11;98532.66;4984474;28;20142;-85
2022/04/18 03:49:04;;;;;;;5.18;2.47;;;;;;;0.24;91.15;98538.94;4985805;28;20054;-85
2022/04/18 03:51:30;;;;;;;6.70;3.17;;;;;;;0.33;91.30;98538.22;4985703;28;20050;-85
2022/04/18 03:53:55;;;;;;;2.88;2.05;;;;;;;0.35;90.87;98541.72;4984552;28;20023;-85
2022/04/18 03:56:20;;;;;;;3.78;2.00;;;;;;;0.27;90.18;98543.28;4986308;28;20156;-85
2022/04/18 03:58:46;;;;;;;4.60;2.45;;;;;;;0.17;90.58;98538.78;4985455;28;20050;-85
2022/04/18 04:01:12;;;;;;;3.05;1.88;;;;;;;0.18;91.46;98543.13;4985270;28;20309;-85
2022/04/18 04:03:37;;;;;;;2.15;1.50;;;;;;;0.23;90.93;98541.50;5000734;28;20035;-85
2022/04/18 04:06:02;;;;;;;10.77;2.30;;;;;;;0.07;90.32;98544.63;4985568;28;20099;-85
2022/04/18 04:08:29;;;;;;;6.22;2.50;;;;;;;0.00;90.71;98539.31;4985202;28;20023;-85
2022/04/18 04:10:54;;;;;;;4.95;2.10;;;;;;;0.09;92.20;98535.19;4984799;28;20026;-85
2022/04/18 04:13:20;;;;;;;3.63;2.03;;;;;;;0.14;92.97;98533.53;4985159;28;20038;-85
2022/04/18 04:15:46;;;;;;;4.30;2.13;;;;;;;0.12;92.58;98527.50;5001707;28;20030;-85
2022/04/18 04:18:11;;;;;;;3.20;2.15;;;;;;;0.08;92.33;98536.00;4985992;28;20027;-85
2022/04/18 04:20:37;;;;;;;5.05;2.40;;;;;;;0.17;91.75;98537.06;4984963;28;20101;-85
2022/04/18 04:23:03;;;;;;;1.60;1.25;;;;;;;0.15;91.01;98532.72;4985089;28;20022;-85
2022/04/18 04:25:28;;;;;;;3.63;2.28;;;;;;;0.07;90.89;98524.81;4984668;28;20035;-85
2022/04/18 04:27:54;;;;;;;4.35;2.17;;;;;;;-0.04;91.29;98526.28;4984883;28;20150;-85
2022/04/18 04:30:19;;;;;;;4.20;1.77;;;;;;;-0.01;92.41;98535.00;4984183;28;20058;-85
2022/04/18 04:32:45;;;;;;;3.95;2.25;;;;;;;0.16;92.33;98532.75;5001143;28;20025;-85
2022/04/18 04:35:10;;;;;;;3.38;1.98;;;;;;;0.20;91.86;98531.06;4984639;28;20023;-85
2022/04/18 04:37:36;;;;;;;8.75;2.78;;;;;;;0.19;91.31;98529.34;4985042;28;20093;-85
2022/04/18 04:40:02;;;;;;;4.40;2.20;;;;;;;0.09;90.86;98532.59;4984816;28;20046;-85
2022/04/18 04:42:27;;;;;;;4.57;1.98;;;;;;;0.11;90.64;98530.91;4984379;28;20026;-85
2022/04/18 04:44:53;;;;;;;7.43;2.13;;;;;;;0.22;90.67;98534.59;4984783;28;20109;-85
2022/04/18 04:47:19;;;;;;;4.95;2.58;;;;;;;0.13;90.61;98529.22;4984406;28;20050;-85
2022/04/18 04:49:44;;;;;;;3.92;2.38;;;;;;;0.09;90.87;98532.59;4983768;28;20027;-85
2022/04/18 04:52:09;;;;;;;4.85;2.60;;;;;;;0.18;91.51;98537.97;4984426;28;20027;-85
2022/04/18 04:54:35;;;;;;;4.40;2.80;;;;;;;0.08;91.58;98531.72;4984095;28;20326;-85
2022/04/18 04:57:01;;;;;;;4.18;2.25;;;;;;;0.12;91.95;98533.50;4984522;28;20057;-85
2022/04/18 04:59:26;;;;;;;3.22;1.92;;;;;;;0.12;92.05;98537.84;4985200;28;20022;-85
2022/04/18 05:01:51;;;;;;;6.43;2.28;;;;;;;0.22;91.16;98539.75;4983932;28;20263;-85
2022/04/18 05:04:17;;;;;;;4.63;1.77;;;;;;;0.28;92.22;98534.69;4985481;28;20057;-85
2022/04/18 05:06:42;;;;;;;5.10;2.88;;;;;;;0.36;91.67;98544.34;4984408;28;20029;-85
2022/04/18 05:09:08;;;;;;;6.15;2.67;;;;;;;0.62;91.45;98537.03;4983891;28;20153;-85
2022/04/18 05:11:33;;;;;;;8.82;3.25;;;;;;;0.83;90.16;98546.09;4983359;28;20030;-85
2022/04/18 05:13:59;;;;;;;3.63;1.98;;;;;;;1.61;88.62;98549.03;4984330;28;20066;-85
2022/04/18 05:16:25;;;;;;;2.75;1.90;;;;;;;2.48;85.22;98565.75;4985479;28;20195;-85
2022/04/18 05:18:50;;;;;;;2.67;1.52;;;;;;;2.96;81.89;98555.84;4982797;28;20038;-85
2022/04/18 05:21:16;;;;;;;4.05;2.22;;;;;;;3.01;79.47;98548.94;4983598;28;20026;-85
2022/04/18 05:23:42;;;;;;;5.00;2.30;;;;;;;3.84;77.86;98563.47;4984230;28;20027;-85
2022/04/18 05:26:07;;;;;;;5.03;1.95;;;;;;;4.13;76.40;98566.19;4984709;28;20120;-85
2022/04/18 05:28:33;;;;;;;5.20;2.78;;;;;;;5.00;74.01;98586.47;4983322;28;20102;-85
2022/04/18 05:30:58;;;;;;;3.83;2.25;;;;;;;5.28;71.93;98583.03;4985203;28;20214;-85
2022/04/18 05:33:24;;;;;;;4.10;2.03;;;;;;;5.82;70.30;98593.50;4983249;28;20322;-85
2022/04/18 05:35:50;;;;;;;6.63;2.60;;;;;;;6.04;69.49;98596.03;4984301;28;20326;-85
2022/04/18 05:38:16;;;;;;;6.25;3.15;;;;;;;6.31;68.26;98600.34;4983113;28;20033;-85
2022/04/18 05:40:41;;;;;;;4.68;2.80;;;;;;;6.68;67.14;98600.16;4978214;28;20023;-85
2022/04/18 05:43:08;;;;;;;8.48;3.55;;;;;;;7.00;65.59;98600.03;4983826;28;20023;-86
2022/04/18 05:45:34;;;;;;;11.82;4.25;;;;;;;7.34;64.69;98598.91;4984536;28;20045;-86
2022/04/18 05:48:00;;;;;;;9.77;4.45;;;;;;;7.63;63.17;98604.78;4984393;28;20322;-86
2022/04/18 05:50:25;;;;;;;8.77;3.88;;;;;;;7.83;63.25;98602.00;4984088;28;20034;-86
2022/04/18 05:52:51;;;;;;;8.77;3.72;;;;;;;8.21;63.21;98611.25;4983547;28;20050;-86
2022/04/18 05:55:16;;;;;;;8.15;3.63;;;;;;;8.50;63.44;98614.44;4984015;28;20030;-86
2022/04/18 05:57:41;;;;;;;7.90;3.13;;;;;;;8.76;61.78;98604.50;4983453;28;20026;-86
2022/04/18 06:00:07;;;;;;;5.47;2.78;;;;;;;8.49;61.21;98604.81;4982978;28;20038;-86
2022/04/18 06:02:33;;;;;;;7.93;3.65;;;;;;;9.25;62.25;98609.06;4983447;28;20026;-86
2022/04/18 06:04:58;;;;;;;7.40;3.15;;;;;;;9.57;60.14;98609.47;4983309;28;20018;-86
2022/04/18 06:07:24;;;;;;;6.80;3.55;;;;;;;10.02;59.84;98613.94;4983551;28;20031;-86
2022/04/18 06:09:49;;;;;;;5.93;2.90;;;;;;;10.52;59.77;98622.69;4983152;28;20034;-86
2022/04/18 06:12:24;;;;;;;9.02;3.88;;;;;;;10.82;57.44;98615.94;4976154;28;20322;-86
2022/04/18 06:14:49;;;;;;;6.03;3.33;;;;;;;11.05;57.03;98613.69;4968082;28;20030;-86
2022/04/18 06:17:15;;;;;;;10.60;4.15;;;;;;;11.61;56.29;98615.06;4984056;28;20119;-86
2022/04/18 06:19:40;;;;;;;8.75;3.38;;;;;;;11.69;53.15;98619.28;4984052;28;20042;-86
2022/04/18 06:22:06;;;;;;;6.20;3.42;;;;;;;12.55;53.90;98624.94;4975828;28;20027;-86
2022/04/18 06:24:31;;;;;;;12.75;3.03;;;;;;;13.01;50.47;98626.25;4965725;28;20101;-86
2022/04/18 06:26:57;;;;;;;9.05;3.28;;;;;;;13.10;49.30;98613.72;4964699;28;20058;-86
2022/04/18 06:29:22;;;;;;;8.02;3.00;;;;;;;13.22;48.07;98608.06;4968227;28;20038;-86
2022/04/18 06:31:49;;;;;;;6.60;2.85;;;;;;;13.42;47.20;98613.59;4983983;28;20026;-86
2022/04/18 06:34:16;;;;;;;3.88;2.47;;;;;;;13.39;47.83;98613.69;4983806;28;20293;-86
2022/04/18 06:36:42;;;;;;;6.78;2.25;;;;;;;13.65;46.06;98619.91;4984905;28;20034;-86
2022/04/18 06:39:07;;;;;;;4.50;2.13;;;;;;;14.04;44.83;98628.31;4983854;28;20031;-86
2022/04/18 06:41:33;;;;;;;5.38;2.42;;;;;;;14.13;44.87;98620.06;4983807;28;20062;-86
2022/04/18 06:43:58;;;;;;;5.50;2.15;;;;;;;14.66;43.32;98627.06;4983859;28;20077;-86
2022/04/18 06:46:23;;;;;;;5.32;2.53;;;;;;;14.85;42.49;98620.19;4983880;28;20022;-86
2022/04/18 06:48:49;;;;;;;5.13;2.80;;;;;;;14.73;41.99;98625.91;4984926;28;20038;-86
2022/04/18 06:51:14;;;;;;;3.58;1.85;;;;;;;15.57;42.11;98627.16;4984795;28;20023;-86
2022/04/18 06:53:40;;;;;;;6.88;2.45;;;;;;;15.42;41.67;98623.31;4983770;28;20218;-86
2022/04/18 06:58:49;;;;;;;4.22;1.95;;;;;;;15.75;39.88;98616.69;4984834;28;20030;-86
2022/04/18 07:01:14;;;;;;;4.25;2.22;;;;;;;15.62;39.61;98620.75;4982736;28;20097;-87
2022/04/18 07:03:40;;;;;;;3.65;2.15;;;;;;;16.06;39.75;98633.09;4980765;28;20031;-87
2022/04/18 07:06:05;;;;;;;2.95;2.05;;;;;;;16.20;39.09;98630.72;4982901;28;20341;-88
2022/04/18 07:08:31;;;;;;;3.63;2.15;;;;;;;16.75;38.83;98634.56;4982850;28;20022;-87
2022/04/18 07:10:56;;;;;;;6.43;2.40;;;;;;;17.12;38.12;98640.84;4981033;28;20073;-88
2022/04/18 07:13:21;;;;;;;5.43;2.67;;;;;;;17.18;38.54;98634.38;4982161;28;20345;-89
2022/04/18 07:15:47;;;;;;;3.92;2.03;;;;;;;17.55;35.92;98645.06;5005542;28;20392;-89
2022/04/18 07:18:12;;;;;;;5.35;2.30;;;;;;;17.91;37.27;98655.78;4982548;28;20322;-88
2022/04/18 07:20:39;;;;;;;5.25;1.88;;;;;;;17.82;36.65;98653.56;4981002;28;20054;-88
2022/04/18 07:23:05;;;;;;;6.47;2.53;;;;;;;18.74;34.75;98657.81;4984854;28;21211;-88
2022/04/18 07:25:30;;;;;;;5.32;2.42;;;;;;;19.20;33.98;98652.63;4986342;28;20109;-88
2022/04/18 07:27:55;;;;;;;3.22;1.88;;;;;;;18.19;35.25;98637.53;4987024;28;20022;-89
2022/04/18 07:30:21;;;;;;;5.07;1.95;;;;;;;18.70;35.40;98646.41;4986530;28;20054;-88
2022/04/18 07:32:47;;;;;;;4.72;2.35;;;;;;;18.79;34.76;98642.41;5002067;28;20038;-88
2022/04/18 07:35:12;;;;;;;4.13;2.13;;;;;;;18.69;34.47;98644.69;4986476;28;20057;-88
2022/04/18 07:38:48;;;;;;;5.85;2.25;;;;;;;17.92;34.26;98630.88;4986023;28;20046;-89
2022/04/18 07:40:27;;;;;;;3.25;2.22;;;;;;;19.38;34.63;98648.16;4985697;28;20046;-89
2022/04/18 07:42:52;;;;;;;6.45;2.53;;;;;;;19.22;34.42;98642.75;4999462;28;20038;-89
2022/04/18 07:45:17;;;;;;;4.18;2.30;;;;;;;18.97;36.69;98641.47;4986374;28;20027;-89
2022/04/18 07:47:43;;;;;;;3.88;2.25;;;;;;;19.16;35.86;98645.75;4985422;28;20023;-89
2022/04/18 07:50:09;;;;;;;3.28;1.90;;;;;;;19.26;32.99;98646.13;4985478;28;20025;-89
2022/04/18 07:52:34;;;;;;;4.18;2.42;;;;;;;19.08;34.02;98652.44;4984130;28;20061;-89
2022/04/18 07:54:59;;;;;;;3.72;1.92;;;;;;;18.91;33.62;98649.78;4985878;28;20026;-89
2022/04/18 07:57:25;;;;;;;4.43;2.05;;;;;;;18.37;32.73;98633.94;4992797;28;20027;-89
2022/04/18 07:59:50;;;;;;;3.70;2.13;;;;;;;18.58;33.61;98627.53;4988106;28;20022;-89
2022/04/18 08:02:16;;;;;;;3.30;2.05;;;;;;;18.79;32.63;98631.75;4990147;28;20089;-89
2022/04/18 08:04:41;;;;;;;3.45;2.20;;;;;;;18.88;33.08;98625.94;4984829;28;20330;-89
2022/04/18 08:07:06;;;;;;;4.90;2.08;;;;;;;19.18;31.22;98632.31;4988017;28;20078;-89
2022/04/18 08:09:32;;;;;;;2.42;1.85;;;;;;;19.07;32.21;98645.34;4985238;28;20266;-89
2022/04/18 08:11:58;;;;;;;5.93;2.33;;;;;;;18.92;33.15;98627.50;4985165;28;20073;-89
2022/04/18 08:14:23;;;;;;;2.92;1.92;;;;;;;19.91;32.27;98646.03;4980224;28;20031;-89
2022/04/18 08:16:49;;;;;;;4.43;2.50;;;;;;;19.75;31.61;98634.50;4985460;28;20218;-89
2022/04/18 08:19:17;;;;;;;3.70;2.15;;;;;;;19.17;31.87;98630.56;4984260;28;20049;-90
2022/04/18 08:21:44;;;;;;;5.15;2.35;;;;;;;19.11;31.19;98620.25;5000559;28;20098;-90
2022/04/18 08:24:09;;;;;;;5.03;2.13;;;;;;;19.54;31.76;98635.69;4962244;28;20089;-91
2022/04/18 08:26:35;;;;;;;3.13;1.73;;;;;;;20.16;30.72;98638.38;4984441;28;20269;-89
2022/04/18 08:29:00;;;;;;;2.92;1.92;;;;;;;20.65;30.89;98639.91;4984534;28;20307;-89
2022/04/18 08:31:26;;;;;;;4.45;2.22;;;;;;;20.97;29.28;98644.19;4979197;28;20074;-89
2022/04/18 08:33:51;;;;;;;2.80;1.83;;;;;;;20.53;30.38;98648.63;4979928;28;20207;-89
2022/04/18 08:36:17;;;;;;;4.43;2.03;;;;;;;19.85;31.25;98638.38;4981660;28;20173;-89
2022/04/18 08:38:42;;;;;;;2.13;1.63;;;;;;;18.99;30.57;98628.91;4978932;28;20034;-89
2022/04/18 08:41:17;;;;;;;3.10;1.60;;;;;;;18.61;32.09;98624.72;5000488;28;20050;-91
2022/04/18 08:43:44;;;;;;;3.83;1.95;;;;;;;20.17;31.08;98648.13;4984109;28;20031;-89
2022/04/18 08:46:10;;;;;;;3.95;2.35;;;;;;;20.65;29.90;98661.28;4981244;28;20045;-89
2022/04/18 08:54:13;;;;;;;3.10;1.55;;;;;;;20.69;30.92;98646.78;4984599;28;20041;-89
2022/04/18 08:56:39;;;;;;;2.92;1.80;;;;;;;20.90;29.04;98650.84;4984285;28;20018;-89
2022/04/18 08:59:04;;;;;;;4.68;1.60;;;;;;;20.94;29.56;98652.41;4982948;28;20023;-89
2022/04/18 09:01:30;;;;;;;5.47;1.70;;;;;;;20.69;29.91;98657.47;4982358;28;20326;-89
2022/04/18 09:03:55;;;;;;;3.58;1.48;;;;;;;20.85;29.71;98647.59;4985143;28;20191;-89
2022/04/18 09:06:24;;;;;;;4.00;2.03;;;;;;;21.53;29.70;98659.44;4985106;28;20278;-89
2022/04/18 09:08:55;;;;;;;1.88;1.35;;;;;;;21.54;28.63;98657.63;4983226;28;20292;-89
2022/04/18 09:11:32;;;;;;;5.20;1.60;;;;;;;21.24;28.30;98641.66;4984273;28;20097;-89
2022/04/18 09:14:10;;;;;;;3.38;1.85;;;;;;;20.24;29.06;98627.22;4983743;28;20040;-89
2022/04/18 09:16:37;;;;;;;4.40;1.75;;;;;;;21.14;28.58;98660.06;4987198;28;20092;-89
2022/04/18 09:19:12;;;;;;;2.65;1.70;;;;;;;20.89;28.89;98640.25;4998439;28;20018;-88
2022/04/18 09:21:41;;;;;;;3.65;1.67;;;;;;;20.57;29.88;98628.78;4981250;28;20029;-88
2022/04/18 09:24:07;;;;;;;2.55;1.77;;;;;;;20.69;29.45;98624.53;5003933;28;20031;-89
2022/04/18 09:26:32;;;;;;;2.60;1.52;;;;;;;20.64;30.13;98626.63;4985045;28;20049;-89
2022/04/18 09:29:05;;;;;;;4.95;1.70;;;;;;;21.41;29.18;98627.22;4987263;28;20022;-89
2022/04/18 09:31:41;;;;;;;4.75;2.05;;;;;;;21.14;29.19;98617.25;4983405;28;20027;-88
2022/04/18 09:34:07;;;;;;;2.30;1.60;;;;;;;21.25;28.54;98620.13;4983821;28;20027;-89
2022/04/18 09:36:33;;;;;;;3.20;1.35;;;;;;;20.27;28.84;98608.34;4985247;28;20073;-89
2022/04/18 09:38:58;;;;;;;2.67;1.70;;;;;;;19.03;30.06;98606.47;4998695;28;20069;-88
2022/04/18 09:41:29;;;;;;;2.33;1.58;;;;;;;19.90;28.86;98617.59;4983346;28;20101;-88
2022/04/18 09:43:55;;;;;;;5.70;1.70;;;;;;;20.01;29.25;98612.50;4973751;28;20269;-88
2022/04/18 09:46:22;;;;;;;1.98;1.67;;;;;;;20.22;28.67;98616.63;4979395;28;20065;-88
2022/04/18 09:48:49;;;;;;;3.30;1.90;;;;;;;19.59;30.12;98601.59;4981610;28;20018;-88
2022/04/18 09:51:26;;;;;;;7.65;1.80;;;;;;;19.98;29.91;98593.97;4983217;28;20105;-88
2022/04/18 09:53:57;;;;;;;3.60;1.92;;;;;;;20.23;29.44;98606.81;4980420;28;20038;-88
2022/04/18 09:56:24;;;;;;;3.40;1.70;;;;;;;20.33;28.68;98584.81;4981367;28;20019;-88
2022/04/18 09:58:51;;;;;;;2.17;1.55;;;;;;;19.70;29.99;98574.25;4981191;28;20036;-88
2022/04/18 10:01:16;;;;;;;4.45;1.50;;;;;;;19.04;29.98;98570.81;4966299;29;20027;-88
2022/04/18 10:03:43;;;;;;;5.68;2.13;;;;;;;19.35;30.88;98584.25;4981242;28;20315;-88
2022/04/18 10:06:10;;;;;;;5.55;2.17;;;;;;;19.75;29.90;98581.09;4966166;29;20029;-88
2022/04/18 10:08:37;;;;;;;5.38;2.17;;;;;;;19.23;31.16;98577.75;4981076;28;20026;-88
2022/04/18 10:11:07;;;;;;;2.97;1.88;;;;;;;19.71;30.96;98587.53;4981084;28;20098;-88
2022/04/18 10:13:35;;;;;;;6.32;3.22;;;;;;;19.89;30.62;98588.28;4966126;29;20030;-88
2022/04/18 10:16:01;;;;;;;4.28;1.95;;;;;;;20.16;30.44;98582.28;4981049;28;20030;-88
2022/04/18 10:18:28;;;;;;;3.72;1.60;;;;;;;20.21;31.09;98598.00;4980924;28;20023;-88
2022/04/18 10:21:15;;;;;;;3.83;1.80;;;;;;;19.84;30.04;98580.53;4980975;28;20027;-88
2022/04/18 10:24:02;;;;;;;4.30;1.85;;;;;;;19.81;29.90;98580.75;4965980;28;20030;-88
2022/04/18 10:26:49;;;;;;;2.65;1.80;;;;;;;20.07;29.67;98582.75;4965953;28;20099;-88
2022/04/18 10:29:25;;;;;;;3.40;1.77;;;;;;;19.80;29.29;98579.00;4981180;28;20086;-88
2022/04/18 10:31:52;;;;;;;3.65;1.77;;;;;;;19.66;30.71;98559.38;4980876;28;20049;-88
2022/04/18 10:34:31;;;;;;;4.35;2.10;;;;;;;20.42;29.88;98572.69;4965796;29;20219;-88
2022/04/18 10:36:59;;;;;;;3.05;1.52;;;;;;;19.46;30.23;98568.53;4965826;29;20315;-88
2022/04/18 10:39:33;;;;;;;3.58;1.67;;;;;;;20.32;29.51;98561.69;4981030;28;20259;-88
2022/04/18 10:42:18;;;;;;;4.20;1.70;;;;;;;19.88;28.95;98555.38;4980684;28;20318;-88
2022/04/18 10:44:57;;;;;;;3.50;1.52;;;;;;;19.65;30.88;98539.81;4980725;28;20047;-88
2022/04/18 10:47:22;;;;;;;5.20;1.48;;;;;;;20.02;29.70;98574.13;4980952;28;20027;-88
2022/04/18 10:50:18;;;;;;;2.50;1.58;;;;;;;19.29;29.93;98549.06;4980653;28;20030;-88
2022/04/18 10:53:08;;;;;;;3.85;1.35;;;;;;;19.17;29.90;98545.19;4980642;28;20034;-88
2022/04/18 10:55:34;;;;;;;2.95;1.20;;;;;;;19.78;30.22;98546.19;4983394;28;20023;-88
2022/04/18 10:58:10;;;;;;;2.40;1.35;;;;;;;19.43;29.37;98542.00;4984500;28;20026;-88
2022/04/18 11:01:08;;;;;;;2.65;1.27;;;;;;;19.00;30.12;98537.25;4984502;28;20030;-88
2022/04/18 11:03:49;;;;;;;5.15;1.38;;;;;;;18.75;31.26;98542.19;4980583;28;20215;-88
2022/04/18 11:06:17;;;;;;;2.30;1.30;;;;;;;18.30;30.27;98539.25;4984447;28;20026;-88
2022/04/18 11:09:06;;;;;;;1.38;1.10;;;;;;;19.20;30.03;98555.69;4984413;28;20019;-88
2022/04/18 11:12:05;;;;;;;3.67;1.63;;;;;;;19.23;31.42;98526.19;4984353;28;20081;-88
2022/04/18 11:14:54;;;;;;;2.05;1.30;;;;;;;19.21;30.33;98541.44;4984135;28;20034;-88
2022/04/18 11:17:27;;;;;;;4.15;1.48;;;;;;;19.64;31.33;98524.75;4984309;28;20027;-88
2022/04/18 11:19:53;;;;;;;1.85;1.40;;;;;;;19.11;30.88;98513.53;4969105;29;20223;-88
2022/04/18 11:22:22;;;;;;;1.88;1.23;;;;;;;19.50;31.49;98522.00;4986701;28;20112;-88
2022/04/18 11:24:51;;;;;;;2.05;1.25;;;;;;;19.78;30.02;98522.16;4987181;28;20047;-88
2022/04/18 11:27:25;;;;;;;5.40;1.50;;;;;;;19.78;29.69;98519.47;5003582;28;20321;-88
2022/04/18 11:29:56;;;;;;;5.47;1.17;;;;;;;19.11;31.40;98508.19;4988675;28;20090;-88
2022/04/18 11:32:24;;;;;;;2.70;1.35;;;;;;;19.36;30.88;98508.56;4987220;28;20061;-88
2022/04/18 11:34:52;;;;;;;2.45;1.10;;;;;;;19.00;31.47;98506.13;5003341;28;20027;-88
2022/04/18 11:37:43;;;;;;;3.15;1.27;;;;;;;19.03;30.92;98499.75;5003386;28;20069;-88
2022/04/18 11:40:14;;;;;;;2.45;1.13;;;;;;;18.35;31.59;98491.91;5003222;28;20031;-88
2022/04/18 11:42:41;;;;;;;5.43;1.40;;;;;;;18.16;32.24;98504.47;5003251;28;20045;-88
2022/04/18 11:45:09;;;;;;;1.60;1.15;;;;;;;18.16;32.90;98504.47;4987004;28;20105;-88
2022/04/18 11:47:41;;;;;;;2.08;1.15;;;;;;;17.79;33.24;98504.59;4983386;28;20127;-88
2022/04/18 11:50:08;;;;;;;3.28;1.25;;;;;;;17.50;33.09;98492.75;4967885;29;20015;-88
2022/04/18 11:52:41;;;;;;;2.92;0.90;;;;;;;17.87;33.47;98483.81;4967406;29;20062;-88
2022/04/18 11:55:15;;;;;;;3.35;1.10;;;;;;;17.50;33.60;98483.91;4968536;29;20030;-88
2022/04/18 11:57:48;;;;;;;2.10;1.05;;;;;;;17.32;33.36;98492.75;4967695;29;20031;-88